| Date | Time | Temp. (oF) | Dew Point (oF) | Rel. Hum. (%) | Press. (in.) | Wind Dir. | Wind Speed (mph) | Hourly Rainfall (in.) |
|
|---|---|---|---|---|---|---|---|---|---|
| 1 | 01/02 | 00:00 | 22 | 14 | 72 | 30.30 | WNW | 7 | 0.00 |
| 2 | 01/01 | 23:00 | 22 | 14 | 71 | 30.31 | SW | 5 | 0.00 |
| 3 | 01/01 | 22:00 | 23 | 14 | 70 | 30.30 | SW | 4 | 0.00 |
| 4 | 01/01 | 21:00 | 24 | 14 | 67 | 30.28 | SW | 6 | 0.00 |
| 5 | 01/01 | 20:00 | 25 | 14 | 64 | 30.26 | WNW | 5 | 0.00 |
| 6 | 01/01 | 19:00 | 26 | 13 | 60 | 30.24 | WNW | 5 | 0.00 |
| 7 | 01/01 | 18:00 | 27 | 13 | 57 | 30.21 | W | 9 | 0.00 |
| 8 | 01/01 | 17:00 | 29 | 13 | 52 | 30.19 | NW | 7 | 0.00 |
| 9 | 01/01 | 16:00 | 31 | 13 | 48 | 30.16 | WNW | 12 | 0.00 |
| 10 | 01/01 | 15:00 | 32 | 13 | 46 | 30.15 | NW | 5 | 0.00 |
| 11 | 01/01 | 14:00 | 32 | 13 | 47 | 30.14 | NW | 7 | 0.00 |
| 12 | 01/01 | 13:00 | 30 | 13 | 50 | 30.15 | WNW | 10 | 0.00 |
| 13 | 01/01 | 12:00 | 28 | 13 | 53 | 30.17 | NW | 10 | 0.00 |
| 14 | 01/01 | 11:00 | 26 | 13 | 58 | 30.19 | NW | 11 | 0.00 |
| 15 | 01/01 | 10:00 | 23 | 11 | 61 | 30.21 | WNW | 9 | 0.00 |
| 16 | 01/01 | 09:00 | 18 | 11 | 75 | 30.20 | NW | 3 | 0.00 |
| 17 | 01/01 | 08:00 | 15 | 9 | 77 | 30.18 | SSW | 2 | 0.00 |
| 18 | 01/01 | 07:00 | 14 | 8 | 78 | 30.16 | SSW | 3 | 0.00 |
| 19 | 01/01 | 06:00 | 15 | 8 | 75 | 30.15 | S | 2 | 0.00 |
| 20 | 01/01 | 05:00 | 14 | 8 | 78 | 30.14 | SSE | 1 | 0.00 |
| 21 | 01/01 | 04:00 | 16 | 9 | 74 | 30.13 | S | 2 | 0.00 |
| 22 | 01/01 | 03:00 | 16 | 9 | 75 | 30.14 | SSW | 3 | 0.00 |
| 23 | 01/01 | 02:00 | 16 | 8 | 73 | 30.14 | WNW | 2 | 0.00 |
| 24 | 01/01 | 01:00 | 16 | 8 | 72 | 30.14 | WNW | 0 | 0.00 |